Vohburg — V2OW7 — position and weather

sailwx.info

Track history (hours):
 
Tides and Currents Weather Stations Pressure Air Temp Water Temp Dewpoint Dewpoint Depression Visibility Wind Speed Wind Dir Waves Ship Positions

Vohburg

Last reported at 2017-Aug-19 13:07 UTC. Time now 2017-Aug-19 14:58 UTC.
Position N 60°00' E 029°43'.

Length 140 m; draft 6.7 m.

MMSI: 305773000.

Date/timePositionNaut miles runAvg speedWind from/ knotsBaromVisibWave heightAir tempDewpointWater temp
2017-Aug-19 13:07N 60°00' E 029°43'0 0.0
2017-Aug-19 06:22N 60°00' E 029°43'0 0.0
2017-Aug-19 03:42N 60°00' E 029°43'0 0.0
2017-Aug-19 03:30N 60°00' E 029°43'0 0.0
2017-Aug-19 02:54N 60°00' E 029°43'0 0.0
2017-Aug-19 02:30N 60°00' E 029°43'0 0.0
2017-Aug-19 01:57N 60°00' E 029°43'0 0.0
2017-Aug-19 00:00N 60°00' E 029°43'0 0.0
2017-Aug-18 23:27N 60°00' E 029°43'0 0.0
2017-Aug-18 23:00N 60°00' E 029°43'0 0.0
2017-Aug-18 22:30N 60°00' E 029°43'0 0.0
2017-Aug-18 21:57N 60°00' E 029°43'0 0.0
2017-Aug-18 21:30N 60°00' E 029°43'0 0.0
2017-Aug-18 20:30N 60°00' E 029°43'0 0.0
2017-Aug-18 06:37N 60°00' E 029°43'0 0.0
2017-Aug-18 05:15N 60°00' E 029°43'0 1.2
2017-Aug-18 05:01N 60°00' E 029°42'3 5.5
2017-Aug-18 04:30N 60°00' E 029°37'611.4
2017-Aug-18 04:00N 60°01' E 029°26'714.8
2017-Aug-18 03:30N 60°02' E 029°11'714.0
2017-Aug-18 03:00N 60°02' E 028°57'713.2
2017-Aug-18 02:30N 60°02' E 028°44'713.2
2017-Aug-18 02:00N 60°03' E 028°31'612.7
2017-Aug-18 01:30N 60°06' E 028°19'612.7
2017-Aug-18 01:01N 60°08' E 028°08'713.3
2017-Aug-18 00:30N 60°10' E 027°55'612.2
2017-Aug-18 00:01N 60°10' E 027°43'713.1
2017-Aug-17 23:30N 60°06' E 027°31'713.4
2017-Aug-17 23:00N 60°03' E 027°19'713.1
2017-Aug-17 22:30N 59°59' E 027°08'612.5
2017-Aug-17 22:00N 59°58' E 026°56'713.4
2017-Aug-17 21:30N 59°59' E 026°43'714.7
2017-Aug-17 21:00N 59°58' E 026°28'714.3
2017-Aug-17 20:30N 59°58' E 026°14'611.4
2017-Aug-17 20:00N 59°58' E 026°03'612.7
2017-Aug-17 19:31N 59°57' E 025°50'713.6
2017-Aug-17 19:00N 59°57' E 025°36'714.2
2017-Aug-17 18:30N 59°59' E 025°23'612.4
2017-Aug-17 18:00N 60°03' E 025°13'612.2
2017-Aug-17 17:30N 60°09' E 025°12'4 7.3
2017-Aug-17 16:59N 60°13' E 025°12'0 0.0
2017-Aug-17 16:29N 60°13' E 025°12'0 0.0
2017-Aug-17 15:57N 60°13' E 025°12'0 0.0
2017-Aug-17 15:28N 60°13' E 025°12'0 0.0
2017-Aug-17 14:58N 60°13' E 025°12'0 0.0
2017-Aug-17 14:30N 60°13' E 025°12'0 0.0
2017-Aug-17 14:00N 60°13' E 025°12'0 0.0
2017-Aug-17 13:26N 60°13' E 025°12'0 0.0
2017-Aug-17 12:57N 60°13' E 025°12'0 0.0
2017-Aug-17 12:30N 60°13' E 025°12'0 0.0
2017-Aug-17 12:00N 60°13' E 025°12'0 0.0
2017-Aug-17 11:30N 60°13' E 025°12'0 0.0
2017-Aug-17 10:58N 60°13' E 025°12'0 0.0
2017-Aug-17 10:29N 60°13' E 025°12'0 0.0
2017-Aug-17 10:00N 60°13' E 025°12'0 0.0
2017-Aug-17 09:27N 60°13' E 025°12'0 0.0
2017-Aug-17 08:52N 60°13' E 025°12'0 0.0
2017-Aug-17 08:29N 60°13' E 025°12'0 0.0
2017-Aug-17 07:59N 60°13' E 025°12'0 0.0
2017-Aug-17 07:30N 60°13' E 025°12'0 0.0
2017-Aug-17 07:00N 60°13' E 025°12'0 0.0
2017-Aug-17 06:29N 60°13' E 025°12'1 1.4
2017-Aug-17 06:00N 60°12' E 025°13'612.2
2017-Aug-17 05:30N 60°06' E 025°11'815.2
2017-Aug-17 05:00N 59°59' E 025°05'714.6
2017-Aug-17 04:30N 59°54' E 024°55'815.1
2017-Aug-17 04:01N 59°49' E 024°44'714.1
2017-Aug-17 03:31N 59°45' E 024°33'714.5
2017-Aug-17 03:00N 59°43' E 024°19'815.3
2017-Aug-17 02:30N 59°41' E 024°04'815.9
2017-Aug-17 02:00N 59°38' E 023°49'815.8
2017-Aug-17 01:31N 59°36' E 023°35'815.6
2017-Aug-17 01:00N 59°33' E 023°20'815.4
2017-Aug-17 00:30N 59°30' E 023°06'815.6
2017-Aug-17 00:01N 59°28' E 022°51'815.3
2017-Aug-16 23:31N 59°25' E 022°37'815.6
2017-Aug-16 23:01N 59°20' E 022°26'815.5
2017-Aug-16 22:30N 59°15' E 022°14'815.7
2017-Aug-16 22:01N 59°10' E 022°02'815.4
2017-Aug-16 21:30N 59°05' E 021°50'816.2
2017-Aug-16 21:00N 58°59' E 021°40'917.9
2017-Aug-16 20:30N 58°52' E 021°29'1116.4
2017-Aug-16 19:52N 58°44' E 021°17'615.6
2017-Aug-16 19:30N 58°39' E 021°11'18215.8
2017-Aug-16 08:00N 56°21' E 017°29'916.1
2017-Aug-16 07:28N 56°16' E 017°17'716.3
2017-Aug-16 07:01N 56°11' E 017°07'816.2
2017-Aug-16 06:30N 56°06' E 016°55'816.1
2017-Aug-16 06:01N 56°02' E 016°44'816.3
2017-Aug-16 05:30N 55°57' E 016°31'816.4
2017-Aug-16 05:01N 55°53' E 016°19'816.7
2017-Aug-16 04:30N 55°49' E 016°06'816.5
2017-Aug-16 04:00N 55°45' E 015°53'816.7
2017-Aug-16 03:31N 55°41' E 015°39'816.7
2017-Aug-16 03:01N 55°38' E 015°26'816.7
2017-Aug-16 02:31N 55°34' E 015°13'816.6
2017-Aug-16 02:01N 55°30' E 014°60'816.7
2017-Aug-16 01:31N 55°26' E 014°47'816.5
2017-Aug-16 01:01N 55°21' E 014°35'817.0
2017-Aug-16 00:31N 55°15' E 014°26'816.7
2017-Aug-16 00:01N 55°08' E 014°17'816.7
2017-Aug-15 23:31N 55°01' E 014°08'816.4
2017-Aug-15 23:00N 54°58' E 013°55'816.4
2017-Aug-15 22:31N 54°55' E 013°42'816.2
2017-Aug-15 22:01N 54°52' E 013°29'816.0
2017-Aug-15 21:31N 54°49' E 013°16'815.9
2017-Aug-15 21:01N 54°46' E 013°03'815.9
2017-Aug-15 20:31N 54°43' E 012°50'815.6
2017-Aug-15 20:01N 54°39' E 012°39'815.3
2017-Aug-15 19:30N 54°35' E 012°27'815.2
2017-Aug-15 19:00N 54°31' E 012°17'3715.7
2017-Aug-15 16:40N 54°10' E 011°24'416.1
2017-Aug-15 16:26N 54°08' E 011°19'4 0.1
2017-Aug-14 13:04N 54°10' E 011°12'115.2
2017-Aug-14 12:59N 54°11' E 011°14'715.0
2017-Aug-14 12:30N 54°16' E 011°22'714.9
2017-Aug-14 12:00N 54°23' E 011°24'714.6
2017-Aug-14 11:30N 54°30' E 011°21'714.4
2017-Aug-14 11:00N 54°35' E 011°11'815.1
2017-Aug-14 10:30N 54°39' E 010°60'713.9
2017-Aug-14 10:00N 54°44' E 010°52'714.6
2017-Aug-14 09:30N 54°51' E 010°52'714.6
2017-Aug-14 09:00N 54°58' E 010°58'714.6
2017-Aug-14 08:30N 55°05' E 011°02'714.5
2017-Aug-14 08:00N 55°12' E 011°05'714.0
2017-Aug-14 07:30N 55°19' E 011°02'714.6
2017-Aug-14 07:00N 55°25' E 010°58'815.2
2017-Aug-14 06:28N 55°32' E 010°51'715.3
2017-Aug-14 06:00N 55°39' E 010°47'815.6
2017-Aug-14 05:30N 55°47' E 010°48'815.1
2017-Aug-14 04:59N 55°54' E 010°55'815.4
2017-Aug-14 04:29N 56°01' E 011°02'816.1
2017-Aug-14 04:00N 56°08' E 011°04'6915.4
2017-Aug-13 23:30N 57°16' E 010°42'815.5
2017-Aug-13 23:00N 57°24' E 010°42'815.1
2017-Aug-13 22:30N 57°32' E 010°43'815.4
2017-Aug-13 21:59N 57°40' E 010°44'714.0
2017-Aug-13 21:30N 57°46' E 010°42'917.3
2017-Aug-13 21:00N 57°45' E 010°26'816.8
2017-Aug-13 20:30N 57°42' E 010°11'816.7
2017-Aug-13 20:00N 57°39' E 009°57'816.8
2017-Aug-13 19:30N 57°35' E 009°43'816.6
2017-Aug-13 19:00N 57°31' E 009°30'14615.6
2017-Aug-13 09:41N 55°37' E 006°45'715.8
2017-Aug-13 09:16N 55°32' E 006°38'616.0
2017-Aug-13 08:52N 55°26' E 006°32'12415.5
2017-Aug-13 00:52N 53°37' E 004°51'615.4
2017-Aug-13 00:30N 53°32' E 004°47'2315.6
2017-Aug-12 23:02N 53°11' E 004°31'015.6
2017-Aug-12 23:00N 53°11' E 004°30'815.8
2017-Aug-12 22:30N 53°04' E 004°24'815.9
2017-Aug-12 22:00N 52°57' E 004°18'816.1
2017-Aug-12 21:28N 52°49' E 004°12'5418.8
2017-Aug-12 18:38N 52°04' E 003°26'0 0.0
2017-Aug-12 18:30N 52°04' E 003°26'4 7.5
2017-Aug-12 18:00N 52°00' E 003°25'1223.0
2017-Aug-12 17:29N 51°49' E 003°17'510.9
2017-Aug-12 17:00N 51°44' E 003°13'917.5
2017-Aug-12 16:30N 51°36' E 003°10'917.5
2017-Aug-12 16:00N 51°29' E 003°01'917.8
2017-Aug-12 15:30N 51°26' E 002°48'4 8.4
2017-Aug-12 15:00N 51°22' E 002°49'815.1
2017-Aug-12 14:30N 51°24' E 003°01'713.7
2017-Aug-12 14:01N 51°22' E 003°11'1 1.8
2017-Aug-12 13:30N 51°21' E 003°11'0 0.0
2017-Aug-12 12:59N 51°21' E 003°11'0 0.0
2017-Aug-12 12:29N 51°21' E 003°11'0 0.0
2017-Aug-12 12:00N 51°21' E 003°11'0 0.0
2017-Aug-12 11:30N 51°21' E 003°11'0 0.0
2017-Aug-12 11:00N 51°21' E 003°11'0 0.0
2017-Aug-12 10:28N 51°21' E 003°11'0 0.0
2017-Aug-12 09:58N 51°21' E 003°11'0 0.0
2017-Aug-12 09:28N 51°21' E 003°11'0 0.0
2017-Aug-12 08:58N 51°21' E 003°11'0 0.0
2017-Aug-12 08:29N 51°21' E 003°11'0 0.0
2017-Aug-12 07:59N 51°21' E 003°11'0 0.0
2017-Aug-12 07:28N 51°21' E 003°11'0 0.0
2017-Aug-12 06:58N 51°21' E 003°11'0 0.0
2017-Aug-12 06:28N 51°21' E 003°11'0 0.0
2017-Aug-12 05:52N 51°21' E 003°11'0 0.0
2017-Aug-12 05:28N 51°21' E 003°11'0 0.0
2017-Aug-12 04:58N 51°21' E 003°11'0 0.0
2017-Aug-12 04:28N 51°21' E 003°11'0 0.0
2017-Aug-12 03:58N 51°21' E 003°11'0 0.0
2017-Aug-12 03:28N 51°21' E 003°11'0 0.0
2017-Aug-12 02:58N 51°21' E 003°11'0 0.0
2017-Aug-12 02:28N 51°21' E 003°11'0 0.0
2017-Aug-12 01:55N 51°21' E 003°11'0 0.0
2017-Aug-12 01:28N 51°21' E 003°11'0 0.0
2017-Aug-12 00:58N 51°21' E 003°11'0 0.0
2017-Aug-12 00:28N 51°21' E 003°11'0 0.0
2017-Aug-11 23:58N 51°21' E 003°11'0 0.0
2017-Aug-11 23:28N 51°21' E 003°11'0 0.0
2017-Aug-11 23:00N 51°21' E 003°11'3 6.7
2017-Aug-11 22:30N 51°24' E 003°08'815.2
2017-Aug-11 22:00N 51°22' E 002°56'815.8
2017-Aug-11 21:31N 51°22' E 002°43'510.3
2017-Aug-11 21:00N 51°22' E 002°35'816.2
2017-Aug-11 20:31N 51°20' E 002°22'816.5
2017-Aug-11 20:01N 51°19' E 002°09'917.1
2017-Aug-11 19:31N 51°23' E 001°57'917.8
2017-Aug-11 19:01N 51°23' E 001°43'815.4
2017-Aug-11 18:31N 51°25' E 001°31'4 8.2
2017-Aug-11 18:00N 51°27' E 001°26'918.0
2017-Aug-11 17:30N 51°29' E 001°11'918.1
2017-Aug-11 17:00N 51°29' E 000°57'7 0.7
2017-Aug-11 07:06N 51°27' E 000°46'214.1
2017-Aug-11 06:56N 51°28' E 000°49'614.5
2017-Aug-11 06:30N 51°29' E 000°59'713.2
2017-Aug-11 06:00N 51°29' E 001°10'714.3
2017-Aug-11 05:30N 51°29' E 001°21'612.7
2017-Aug-11 05:01N 51°26' E 001°30'4 8.3
2017-Aug-11 04:30N 51°29' E 001°34'5 9.9
2017-Aug-11 04:00N 51°33' E 001°39'5 9.2
2017-Aug-11 03:30N 51°37' E 001°43'5 9.0
2017-Aug-11 03:00N 51°41' E 001°45'5 9.7
2017-Aug-11 02:30N 51°46' E 001°44'5 9.7
2017-Aug-11 02:00N 51°51' E 001°44'5 9.9
2017-Aug-11 01:30N 51°56' E 001°45'510.2
2017-Aug-11 01:00N 52°01' E 001°46'611.3
2017-Aug-11 00:30N 52°06' E 001°48'1412.2
2017-Aug-10 23:20N 52°21' E 001°51'512.8
2017-Aug-10 22:56N 52°26' E 001°52'812.9
2017-Aug-10 22:17N 52°34' E 001°54'413.9
2017-Aug-10 22:00N 52°38' E 001°55'713.7
2017-Aug-10 21:30N 52°45' E 001°55'713.7
2017-Aug-10 21:00N 52°49' E 001°47'713.7
2017-Aug-10 20:30N 52°54' E 001°38'713.6
2017-Aug-10 20:00N 52°59' E 001°31'612.9
2017-Aug-10 19:30N 53°04' E 001°24'612.5
2017-Aug-10 19:00N 53°09' E 001°19'612.5
2017-Aug-10 18:30N 53°15' E 001°14'4412.4
2017-Aug-10 14:57N 53°51' E 000°32'511.4
2017-Aug-10 14:30N 53°55' E 000°26'611.2
2017-Aug-10 14:00N 53°59' E 000°20'510.7
2017-Aug-10 13:30N 54°03' E 000°15'510.7
2017-Aug-10 13:00N 54°07' E 000°09'510.3
2017-Aug-10 12:30N 54°11' E 000°03'510.0
2017-Aug-10 12:00N 54°15' W 000°03'510.1
2017-Aug-10 11:30N 54°19' W 000°08'510.2
2017-Aug-10 11:00N 54°23' W 000°14'510.2
2017-Aug-10 10:30N 54°27' W 000°20'510.2
2017-Aug-10 10:00N 54°30' W 000°26'910.7
2017-Aug-10 09:07N 54°35' W 000°40'111.1
2017-Aug-10 08:59N 54°36' W 000°42'611.6
2017-Aug-10 08:30N 54°38' W 000°51'611.9
2017-Aug-10 08:00N 54°39' W 001°01'4 0.3
2017-Aug-09 19:23N 54°40' W 001°08'4 9.5
2017-Aug-09 19:00N 54°43' W 001°09'3 5.3
2017-Aug-09 18:30N 54°46' W 001°11'0 0.5
2017-Aug-09 17:59N 54°46' W 001°11'0 0.0
2017-Aug-09 17:29N 54°46' W 001°11'0 0.0
2017-Aug-09 16:59N 54°46' W 001°11'0 0.0
2017-Aug-09 16:29N 54°46' W 001°11'0 0.0
2017-Aug-09 15:59N 54°46' W 001°11'0 0.0
2017-Aug-09 15:29N 54°46' W 001°11'0 0.0
2017-Aug-09 14:50N 54°46' W 001°11'0 0.1
2017-Aug-09 14:29N 54°46' W 001°11'2 3.3
2017-Aug-09 14:00N 54°46' W 001°09'612.9
2017-Aug-09 13:30N 54°49' W 000°59'  
Track history (hours):
 
Tides and Currents Weather Stations Pressure Air Temp Water Temp Dewpoint Dewpoint Depression Visibility Wind Speed Wind Dir Waves Ship Positions

Vohburg

Last reported at 2017-Aug-19 13:07 UTC. Time now 2017-Aug-19 14:58 UTC.
Position N 60°00' E 029°43'.

Length 140 m; draft 6.7 m.

MMSI: 305773000.

Date/timePositionNaut miles runAvg speedWind from/ knotsBaromVisibWave heightAir tempDewpointWater temp
2017-Aug-19 13:07N 60°00' E 029°43'0 0.0
2017-Aug-19 06:22N 60°00' E 029°43'0 0.0
2017-Aug-19 03:42N 60°00' E 029°43'0 0.0
2017-Aug-19 03:30N 60°00' E 029°43'0 0.0
2017-Aug-19 02:54N 60°00' E 029°43'0 0.0
2017-Aug-19 02:30N 60°00' E 029°43'0 0.0
2017-Aug-19 01:57N 60°00' E 029°43'0 0.0
2017-Aug-19 00:00N 60°00' E 029°43'0 0.0
2017-Aug-18 23:27N 60°00' E 029°43'0 0.0
2017-Aug-18 23:00N 60°00' E 029°43'0 0.0
2017-Aug-18 22:30N 60°00' E 029°43'0 0.0
2017-Aug-18 21:57N 60°00' E 029°43'0 0.0
2017-Aug-18 21:30N 60°00' E 029°43'0 0.0
2017-Aug-18 20:30N 60°00' E 029°43'0 0.0
2017-Aug-18 06:37N 60°00' E 029°43'0 0.0
2017-Aug-18 05:15N 60°00' E 029°43'0 1.2
2017-Aug-18 05:01N 60°00' E 029°42'3 5.5
2017-Aug-18 04:30N 60°00' E 029°37'611.4
2017-Aug-18 04:00N 60°01' E 029°26'714.8
2017-Aug-18 03:30N 60°02' E 029°11'714.0
2017-Aug-18 03:00N 60°02' E 028°57'713.2
2017-Aug-18 02:30N 60°02' E 028°44'713.2
2017-Aug-18 02:00N 60°03' E 028°31'612.7
2017-Aug-18 01:30N 60°06' E 028°19'612.7
2017-Aug-18 01:01N 60°08' E 028°08'713.3
2017-Aug-18 00:30N 60°10' E 027°55'612.2
2017-Aug-18 00:01N 60°10' E 027°43'713.1
2017-Aug-17 23:30N 60°06' E 027°31'713.4
2017-Aug-17 23:00N 60°03' E 027°19'713.1
2017-Aug-17 22:30N 59°59' E 027°08'612.5
2017-Aug-17 22:00N 59°58' E 026°56'713.4
2017-Aug-17 21:30N 59°59' E 026°43'714.7
2017-Aug-17 21:00N 59°58' E 026°28'714.3
2017-Aug-17 20:30N 59°58' E 026°14'611.4
2017-Aug-17 20:00N 59°58' E 026°03'612.7
2017-Aug-17 19:31N 59°57' E 025°50'713.6
2017-Aug-17 19:00N 59°57' E 025°36'714.2
2017-Aug-17 18:30N 59°59' E 025°23'612.4
2017-Aug-17 18:00N 60°03' E 025°13'612.2
2017-Aug-17 17:30N 60°09' E 025°12'4 7.3
2017-Aug-17 16:59N 60°13' E 025°12'0 0.0
2017-Aug-17 16:29N 60°13' E 025°12'0 0.0
2017-Aug-17 15:57N 60°13' E 025°12'0 0.0
2017-Aug-17 15:28N 60°13' E 025°12'0 0.0
2017-Aug-17 14:58N 60°13' E 025°12'0 0.0
2017-Aug-17 14:30N 60°13' E 025°12'0 0.0
2017-Aug-17 14:00N 60°13' E 025°12'0 0.0
2017-Aug-17 13:26N 60°13' E 025°12'0 0.0
2017-Aug-17 12:57N 60°13' E 025°12'0 0.0
2017-Aug-17 12:30N 60°13' E 025°12'0 0.0
2017-Aug-17 12:00N 60°13' E 025°12'0 0.0
2017-Aug-17 11:30N 60°13' E 025°12'0 0.0
2017-Aug-17 10:58N 60°13' E 025°12'0 0.0
2017-Aug-17 10:29N 60°13' E 025°12'0 0.0
2017-Aug-17 10:00N 60°13' E 025°12'0 0.0
2017-Aug-17 09:27N 60°13' E 025°12'0 0.0
2017-Aug-17 08:52N 60°13' E 025°12'0 0.0
2017-Aug-17 08:29N 60°13' E 025°12'0 0.0
2017-Aug-17 07:59N 60°13' E 025°12'0 0.0
2017-Aug-17 07:30N 60°13' E 025°12'0 0.0
2017-Aug-17 07:00N 60°13' E 025°12'0 0.0
2017-Aug-17 06:29N 60°13' E 025°12'1 1.4
2017-Aug-17 06:00N 60°12' E 025°13'612.2
2017-Aug-17 05:30N 60°06' E 025°11'815.2
2017-Aug-17 05:00N 59°59' E 025°05'714.6
2017-Aug-17 04:30N 59°54' E 024°55'815.1
2017-Aug-17 04:01N 59°49' E 024°44'714.1
2017-Aug-17 03:31N 59°45' E 024°33'714.5
2017-Aug-17 03:00N 59°43' E 024°19'815.3
2017-Aug-17 02:30N 59°41' E 024°04'815.9
2017-Aug-17 02:00N 59°38' E 023°49'815.8
2017-Aug-17 01:31N 59°36' E 023°35'815.6
2017-Aug-17 01:00N 59°33' E 023°20'815.4
2017-Aug-17 00:30N 59°30' E 023°06'815.6
2017-Aug-17 00:01N 59°28' E 022°51'815.3
2017-Aug-16 23:31N 59°25' E 022°37'815.6
2017-Aug-16 23:01N 59°20' E 022°26'815.5
2017-Aug-16 22:30N 59°15' E 022°14'815.7
2017-Aug-16 22:01N 59°10' E 022°02'815.4
2017-Aug-16 21:30N 59°05' E 021°50'816.2
2017-Aug-16 21:00N 58°59' E 021°40'917.9
2017-Aug-16 20:30N 58°52' E 021°29'1116.4
2017-Aug-16 19:52N 58°44' E 021°17'615.6
2017-Aug-16 19:30N 58°39' E 021°11'18215.8
2017-Aug-16 08:00N 56°21' E 017°29'916.1
2017-Aug-16 07:28N 56°16' E 017°17'716.3
2017-Aug-16 07:01N 56°11' E 017°07'816.2
2017-Aug-16 06:30N 56°06' E 016°55'816.1
2017-Aug-16 06:01N 56°02' E 016°44'816.3
2017-Aug-16 05:30N 55°57' E 016°31'816.4
2017-Aug-16 05:01N 55°53' E 016°19'816.7
2017-Aug-16 04:30N 55°49' E 016°06'816.5
2017-Aug-16 04:00N 55°45' E 015°53'816.7
2017-Aug-16 03:31N 55°41' E 015°39'816.7
2017-Aug-16 03:01N 55°38' E 015°26'816.7
2017-Aug-16 02:31N 55°34' E 015°13'816.6
2017-Aug-16 02:01N 55°30' E 014°60'816.7
2017-Aug-16 01:31N 55°26' E 014°47'816.5
2017-Aug-16 01:01N 55°21' E 014°35'817.0
2017-Aug-16 00:31N 55°15' E 014°26'816.7
2017-Aug-16 00:01N 55°08' E 014°17'816.7
2017-Aug-15 23:31N 55°01' E 014°08'816.4
2017-Aug-15 23:00N 54°58' E 013°55'816.4
2017-Aug-15 22:31N 54°55' E 013°42'816.2
2017-Aug-15 22:01N 54°52' E 013°29'816.0
2017-Aug-15 21:31N 54°49' E 013°16'815.9
2017-Aug-15 21:01N 54°46' E 013°03'815.9
2017-Aug-15 20:31N 54°43' E 012°50'815.6
2017-Aug-15 20:01N 54°39' E 012°39'815.3
2017-Aug-15 19:30N 54°35' E 012°27'815.2
2017-Aug-15 19:00N 54°31' E 012°17'3715.7
2017-Aug-15 16:40N 54°10' E 011°24'416.1
2017-Aug-15 16:26N 54°08' E 011°19'4 0.1
2017-Aug-14 13:04N 54°10' E 011°12'115.2
2017-Aug-14 12:59N 54°11' E 011°14'715.0
2017-Aug-14 12:30N 54°16' E 011°22'714.9
2017-Aug-14 12:00N 54°23' E 011°24'714.6
2017-Aug-14 11:30N 54°30' E 011°21'714.4
2017-Aug-14 11:00N 54°35' E 011°11'815.1
2017-Aug-14 10:30N 54°39' E 010°60'713.9
2017-Aug-14 10:00N 54°44' E 010°52'714.6
2017-Aug-14 09:30N 54°51' E 010°52'714.6
2017-Aug-14 09:00N 54°58' E 010°58'714.6
2017-Aug-14 08:30N 55°05' E 011°02'714.5
2017-Aug-14 08:00N 55°12' E 011°05'714.0
2017-Aug-14 07:30N 55°19' E 011°02'714.6
2017-Aug-14 07:00N 55°25' E 010°58'815.2
2017-Aug-14 06:28N 55°32' E 010°51'715.3
2017-Aug-14 06:00N 55°39' E 010°47'815.6
2017-Aug-14 05:30N 55°47' E 010°48'815.1
2017-Aug-14 04:59N 55°54' E 010°55'815.4
2017-Aug-14 04:29N 56°01' E 011°02'816.1
2017-Aug-14 04:00N 56°08' E 011°04'6915.4
2017-Aug-13 23:30N 57°16' E 010°42'815.5
2017-Aug-13 23:00N 57°24' E 010°42'815.1
2017-Aug-13 22:30N 57°32' E 010°43'815.4
2017-Aug-13 21:59N 57°40' E 010°44'714.0
2017-Aug-13 21:30N 57°46' E 010°42'917.3
2017-Aug-13 21:00N 57°45' E 010°26'816.8
2017-Aug-13 20:30N 57°42' E 010°11'816.7
2017-Aug-13 20:00N 57°39' E 009°57'816.8
2017-Aug-13 19:30N 57°35' E 009°43'816.6
2017-Aug-13 19:00N 57°31' E 009°30'14615.6
2017-Aug-13 09:41N 55°37' E 006°45'715.8
2017-Aug-13 09:16N 55°32' E 006°38'616.0
2017-Aug-13 08:52N 55°26' E 006°32'12415.5
2017-Aug-13 00:52N 53°37' E 004°51'615.4
2017-Aug-13 00:30N 53°32' E 004°47'2315.6
2017-Aug-12 23:02N 53°11' E 004°31'015.6
2017-Aug-12 23:00N 53°11' E 004°30'815.8
2017-Aug-12 22:30N 53°04' E 004°24'815.9
2017-Aug-12 22:00N 52°57' E 004°18'816.1
2017-Aug-12 21:28N 52°49' E 004°12'5418.8
2017-Aug-12 18:38N 52°04' E 003°26'0 0.0
2017-Aug-12 18:30N 52°04' E 003°26'4 7.5
2017-Aug-12 18:00N 52°00' E 003°25'1223.0
2017-Aug-12 17:29N 51°49' E 003°17'510.9
2017-Aug-12 17:00N 51°44' E 003°13'917.5
2017-Aug-12 16:30N 51°36' E 003°10'917.5
2017-Aug-12 16:00N 51°29' E 003°01'917.8
2017-Aug-12 15:30N 51°26' E 002°48'4 8.4
2017-Aug-12 15:00N 51°22' E 002°49'815.1
2017-Aug-12 14:30N 51°24' E 003°01'713.7
2017-Aug-12 14:01N 51°22' E 003°11'1 1.8
2017-Aug-12 13:30N 51°21' E 003°11'0 0.0
2017-Aug-12 12:59N 51°21' E 003°11'0 0.0
2017-Aug-12 12:29N 51°21' E 003°11'0 0.0
2017-Aug-12 12:00N 51°21' E 003°11'0 0.0
2017-Aug-12 11:30N 51°21' E 003°11'0 0.0
2017-Aug-12 11:00N 51°21' E 003°11'0 0.0
2017-Aug-12 10:28N 51°21' E 003°11'0 0.0
2017-Aug-12 09:58N 51°21' E 003°11'0 0.0
2017-Aug-12 09:28N 51°21' E 003°11'0 0.0
2017-Aug-12 08:58N 51°21' E 003°11'0 0.0
2017-Aug-12 08:29N 51°21' E 003°11'0 0.0
2017-Aug-12 07:59N 51°21' E 003°11'0 0.0
2017-Aug-12 07:28N 51°21' E 003°11'0 0.0
2017-Aug-12 06:58N 51°21' E 003°11'0 0.0
2017-Aug-12 06:28N 51°21' E 003°11'0 0.0
2017-Aug-12 05:52N 51°21' E 003°11'0 0.0
2017-Aug-12 05:28N 51°21' E 003°11'0 0.0
2017-Aug-12 04:58N 51°21' E 003°11'0 0.0
2017-Aug-12 04:28N 51°21' E 003°11'0 0.0
2017-Aug-12 03:58N 51°21' E 003°11'0 0.0
2017-Aug-12 03:28N 51°21' E 003°11'0 0.0
2017-Aug-12 02:58N 51°21' E 003°11'0 0.0
2017-Aug-12 02:28N 51°21' E 003°11'0 0.0
2017-Aug-12 01:55N 51°21' E 003°11'0 0.0
2017-Aug-12 01:28N 51°21' E 003°11'0 0.0
2017-Aug-12 00:58N 51°21' E 003°11'0 0.0
2017-Aug-12 00:28N 51°21' E 003°11'0 0.0
2017-Aug-11 23:58N 51°21' E 003°11'0 0.0
2017-Aug-11 23:28N 51°21' E 003°11'0 0.0
2017-Aug-11 23:00N 51°21' E 003°11'3 6.7
2017-Aug-11 22:30N 51°24' E 003°08'815.2
2017-Aug-11 22:00N 51°22' E 002°56'815.8
2017-Aug-11 21:31N 51°22' E 002°43'510.3
2017-Aug-11 21:00N 51°22' E 002°35'816.2
2017-Aug-11 20:31N 51°20' E 002°22'816.5
2017-Aug-11 20:01N 51°19' E 002°09'917.1
2017-Aug-11 19:31N 51°23' E 001°57'917.8
2017-Aug-11 19:01N 51°23' E 001°43'815.4
2017-Aug-11 18:31N 51°25' E 001°31'4 8.2
2017-Aug-11 18:00N 51°27' E 001°26'918.0
2017-Aug-11 17:30N 51°29' E 001°11'918.1
2017-Aug-11 17:00N 51°29' E 000°57'7 0.7
2017-Aug-11 07:06N 51°27' E 000°46'214.1
2017-Aug-11 06:56N 51°28' E 000°49'614.5
2017-Aug-11 06:30N 51°29' E 000°59'713.2
2017-Aug-11 06:00N 51°29' E 001°10'714.3
2017-Aug-11 05:30N 51°29' E 001°21'612.7
2017-Aug-11 05:01N 51°26' E 001°30'4 8.3
2017-Aug-11 04:30N 51°29' E 001°34'5 9.9
2017-Aug-11 04:00N 51°33' E 001°39'5 9.2
2017-Aug-11 03:30N 51°37' E 001°43'5 9.0
2017-Aug-11 03:00N 51°41' E 001°45'5 9.7
2017-Aug-11 02:30N 51°46' E 001°44'5 9.7
2017-Aug-11 02:00N 51°51' E 001°44'5 9.9
2017-Aug-11 01:30N 51°56' E 001°45'510.2
2017-Aug-11 01:00N 52°01' E 001°46'611.3
2017-Aug-11 00:30N 52°06' E 001°48'1412.2
2017-Aug-10 23:20N 52°21' E 001°51'512.8
2017-Aug-10 22:56N 52°26' E 001°52'812.9
2017-Aug-10 22:17N 52°34' E 001°54'413.9
2017-Aug-10 22:00N 52°38' E 001°55'713.7
2017-Aug-10 21:30N 52°45' E 001°55'713.7
2017-Aug-10 21:00N 52°49' E 001°47'713.7
2017-Aug-10 20:30N 52°54' E 001°38'713.6
2017-Aug-10 20:00N 52°59' E 001°31'612.9
2017-Aug-10 19:30N 53°04' E 001°24'612.5
2017-Aug-10 19:00N 53°09' E 001°19'612.5
2017-Aug-10 18:30N 53°15' E 001°14'4412.4
2017-Aug-10 14:57N 53°51' E 000°32'511.4
2017-Aug-10 14:30N 53°55' E 000°26'611.2
2017-Aug-10 14:00N 53°59' E 000°20'510.7
2017-Aug-10 13:30N 54°03' E 000°15'510.7
2017-Aug-10 13:00N 54°07' E 000°09'510.3
2017-Aug-10 12:30N 54°11' E 000°03'510.0
2017-Aug-10 12:00N 54°15' W 000°03'510.1
2017-Aug-10 11:30N 54°19' W 000°08'510.2
2017-Aug-10 11:00N 54°23' W 000°14'510.2
2017-Aug-10 10:30N 54°27' W 000°20'510.2
2017-Aug-10 10:00N 54°30' W 000°26'910.7
2017-Aug-10 09:07N 54°35' W 000°40'111.1
2017-Aug-10 08:59N 54°36' W 000°42'611.6
2017-Aug-10 08:30N 54°38' W 000°51'611.9
2017-Aug-10 08:00N 54°39' W 001°01'4 0.3
2017-Aug-09 19:23N 54°40' W 001°08'4 9.5
2017-Aug-09 19:00N 54°43' W 001°09'3 5.3
2017-Aug-09 18:30N 54°46' W 001°11'0 0.5
2017-Aug-09 17:59N 54°46' W 001°11'0 0.0
2017-Aug-09 17:29N 54°46' W 001°11'0 0.0
2017-Aug-09 16:59N 54°46' W 001°11'0 0.0
2017-Aug-09 16:29N 54°46' W 001°11'0 0.0
2017-Aug-09 15:59N 54°46' W 001°11'0 0.0
2017-Aug-09 15:29N 54°46' W 001°11'0 0.0
2017-Aug-09 14:50N 54°46' W 001°11'0 0.1
2017-Aug-09 14:29N 54°46' W 001°11'2 3.3
2017-Aug-09 14:00N 54°46' W 001°09'612.9
2017-Aug-09 13:30N 54°49' W 000°59'  

Dump ship's entire track history